createdAt,value
2022-12-18T00:02:11.896Z,-8.57
2022-12-18T00:04:38.454Z,-8.53
2022-12-18T00:07:05.313Z,-8.54
2022-12-18T00:09:40.292Z,-8.58
2022-12-18T00:14:45.453Z,-8.61
2022-12-18T00:17:11.925Z,-8.58
2022-12-18T00:19:38.239Z,-8.58
2022-12-18T00:22:04.639Z,-8.63
2022-12-18T00:24:31.040Z,-8.69
2022-12-18T00:26:57.388Z,-8.66
2022-12-18T00:29:23.796Z,-8.86
2022-12-18T00:31:50.218Z,-8.97
2022-12-18T00:34:17.033Z,-8.97
2022-12-18T00:36:43.362Z,-8.94
2022-12-18T00:39:11.310Z,-8.90
2022-12-18T00:41:56.266Z,-8.91
2022-12-18T00:44:22.611Z,-8.91
2022-12-18T00:46:49.339Z,-9.09
2022-12-18T00:49:18.596Z,-9.13
2022-12-18T00:51:46.151Z,-9.09
2022-12-18T00:54:12.849Z,-9.00
2022-12-18T00:56:48.382Z,-8.92
2022-12-18T00:59:15.453Z,-8.88
2022-12-18T01:01:41.999Z,-8.92
2022-12-18T01:04:08.713Z,-8.93
2022-12-18T01:06:35.306Z,-8.89
2022-12-18T01:09:01.765Z,-9.08
2022-12-18T01:11:28.146Z,-9.03
2022-12-18T01:13:54.793Z,-9.14
2022-12-18T01:16:23.237Z,-9.11
2022-12-18T01:18:53.313Z,-9.04
2022-12-18T01:21:19.699Z,-8.97
2022-12-18T01:23:46.595Z,-8.97
2022-12-18T01:26:15.713Z,-9.05
2022-12-18T01:28:43.092Z,-9.05
2022-12-18T01:31:23.736Z,-9.11
2022-12-18T01:33:51.497Z,-9.10
2022-12-18T01:36:19.427Z,-9.07
2022-12-18T01:38:46.288Z,-9.07
2022-12-18T01:41:13.946Z,-9.08
2022-12-18T01:43:54.665Z,-9.06
2022-12-18T01:46:26.099Z,-9.06
2022-12-18T01:49:02.013Z,-9.05
2022-12-18T01:51:30.637Z,-8.97
2022-12-18T01:53:59.892Z,-9.06
2022-12-18T01:56:26.246Z,-9.18
2022-12-18T01:59:00.682Z,-9.10
2022-12-18T02:01:27.577Z,-9.14
2022-12-18T02:03:54.438Z,-9.22
2022-12-18T02:06:35.207Z,-9.24
2022-12-18T02:09:19.838Z,-9.35
2022-12-18T02:11:46.110Z,-9.26
2022-12-18T02:14:33.308Z,-9.34
2022-12-18T02:17:07.358Z,-9.35
2022-12-18T02:20:03.833Z,-9.34
2022-12-18T02:23:05.682Z,-9.29
2022-12-18T02:25:58.821Z,-9.27
2022-12-18T02:28:30.438Z,-9.25
2022-12-18T02:31:03.673Z,-9.18
2022-12-18T02:33:31.799Z,-9.13
2022-12-18T02:36:00.827Z,-9.13
2022-12-18T02:38:29.724Z,-9.16
2022-12-18T02:41:00.426Z,-9.20
2022-12-18T02:43:27.220Z,-9.20
2022-12-18T02:45:59.084Z,-9.17
2022-12-18T02:48:34.804Z,-9.19
2022-12-18T02:51:29.891Z,-9.25
2022-12-18T02:54:38.548Z,-9.26
2022-12-18T02:57:37.637Z,-9.25
2022-12-18T03:00:04.118Z,-9.28
2022-12-18T03:02:40.013Z,-9.31
2022-12-18T03:05:18.743Z,-9.34
2022-12-18T03:07:54.213Z,-9.31
2022-12-18T03:10:27.680Z,-9.32
2022-12-18T03:13:14.671Z,-9.44
2022-12-18T03:15:48.650Z,-9.50
2022-12-18T03:18:35.159Z,-9.54
2022-12-18T03:21:06.143Z,-9.47
2022-12-18T03:23:41.387Z,-9.44
2022-12-18T03:26:12.334Z,-9.49
2022-12-18T03:28:49.666Z,-9.50
2022-12-18T03:31:18.468Z,-9.50
2022-12-18T03:33:52.028Z,-9.52
2022-12-18T03:36:18.820Z,-9.71
2022-12-18T03:38:45.232Z,-9.77
2022-12-18T03:41:29.424Z,-9.75
2022-12-18T03:44:24.719Z,-9.66
2022-12-18T03:47:04.767Z,-9.55
2022-12-18T03:49:39.547Z,-9.55
2022-12-18T03:52:13.482Z,-9.52
2022-12-18T03:54:44.310Z,-9.47
2022-12-18T03:57:20.577Z,-9.46
2022-12-18T03:59:53.087Z,-9.42
2022-12-18T04:02:24.354Z,-9.41
2022-12-18T04:04:54.322Z,-9.39
2022-12-18T04:07:22.939Z,-9.43
2022-12-18T04:09:51.091Z,-9.43
2022-12-18T04:12:18.250Z,-9.39
2022-12-18T04:14:46.260Z,-9.46
2022-12-18T04:17:13.388Z,-9.44
2022-12-18T04:19:39.796Z,-9.45
2022-12-18T04:22:11.054Z,-9.46
2022-12-18T04:24:42.486Z,-9.43
2022-12-18T04:27:15.746Z,-9.43
2022-12-18T04:29:47.288Z,-9.55
2022-12-18T04:32:14.741Z,-9.57
2022-12-18T04:34:43.338Z,-9.58
2022-12-18T04:37:09.756Z,-9.60
2022-12-18T04:39:36.659Z,-9.58
2022-12-18T04:42:08.325Z,-9.56
2022-12-18T04:44:35.147Z,-9.61
2022-12-18T04:47:01.466Z,-9.70
2022-12-18T04:49:27.818Z,-9.76
2022-12-18T04:51:54.403Z,-9.81
2022-12-18T04:54:21.531Z,-9.85
2022-12-18T04:56:47.860Z,-9.87
2022-12-18T04:59:14.456Z,-9.83
2022-12-18T05:01:40.885Z,-9.78
2022-12-18T05:04:07.679Z,-9.82
2022-12-18T05:06:34.326Z,-9.76
2022-12-18T05:09:00.652Z,-9.82
2022-12-18T05:11:26.980Z,-9.78
2022-12-18T05:13:53.312Z,-9.79
2022-12-18T05:16:19.650Z,-9.84
2022-12-18T05:18:46.098Z,-9.79
2022-12-18T05:21:12.671Z,-9.73
2022-12-18T05:23:39.449Z,-9.70
2022-12-18T05:26:07.169Z,-9.67
2022-12-18T05:28:35.632Z,-9.70
2022-12-18T05:31:03.924Z,-9.67
2022-12-18T05:33:33.059Z,-9.65
2022-12-18T05:36:01.987Z,-9.64
2022-12-18T05:38:29.928Z,-9.63
2022-12-18T05:40:57.163Z,-9.64
2022-12-18T05:43:24.366Z,-9.63
2022-12-18T05:45:51.807Z,-9.66
2022-12-18T05:48:18.546Z,-9.65
2022-12-18T05:50:46.586Z,-9.69
2022-12-18T05:53:15.186Z,-9.68
2022-12-18T05:55:42.671Z,-9.68
2022-12-18T05:58:10.852Z,-9.68
2022-12-18T06:00:41.766Z,-9.72
2022-12-18T06:03:09.589Z,-9.67
2022-12-18T06:05:38.815Z,-9.77
2022-12-18T06:08:05.484Z,-9.75
2022-12-18T06:10:32.145Z,-9.74
2022-12-18T06:12:58.587Z,-9.78
2022-12-18T06:15:25.370Z,-9.79
2022-12-18T06:17:51.720Z,-9.70
2022-12-18T06:20:18.155Z,-9.75
2022-12-18T06:22:44.505Z,-9.76
2022-12-18T06:25:10.917Z,-9.74
2022-12-18T06:27:37.230Z,-9.78
2022-12-18T06:30:04.802Z,-9.86
2022-12-18T06:32:31.480Z,-9.89
2022-12-18T06:34:57.840Z,-9.88
2022-12-18T06:37:27.191Z,-9.89
2022-12-18T06:39:54.414Z,-9.93
2022-12-18T06:42:20.724Z,-10.01
2022-12-18T06:44:47.014Z,-9.96
2022-12-18T06:47:13.336Z,-9.95
2022-12-18T06:49:39.647Z,-9.95
2022-12-18T06:52:05.976Z,-9.99
2022-12-18T06:54:32.327Z,-10.02
2022-12-18T06:56:58.649Z,-9.97
2022-12-18T06:59:25.261Z,-10.06
2022-12-18T07:01:52.513Z,-10.13
2022-12-18T07:04:18.959Z,-10.18
2022-12-18T07:06:45.284Z,-10.13
2022-12-18T07:09:11.627Z,-10.04
2022-12-18T07:11:37.952Z,-9.98
2022-12-18T07:14:04.330Z,-10.00
2022-12-18T07:16:30.704Z,-10.09
2022-12-18T07:18:57.402Z,-10.13
2022-12-18T07:21:24.890Z,-10.11
2022-12-18T07:23:51.776Z,-10.18
2022-12-18T07:26:21.301Z,-10.10
2022-12-18T07:28:48.147Z,-10.19
2022-12-18T07:31:20.303Z,-10.22
2022-12-18T07:33:48.250Z,-10.12
2022-12-18T07:36:15.035Z,-10.10
2022-12-18T07:38:41.466Z,-10.07
2022-12-18T07:41:13.417Z,-9.98
2022-12-18T07:43:41.936Z,-9.97
2022-12-18T07:46:10.169Z,-9.92
2022-12-18T07:48:36.651Z,-9.88
2022-12-18T07:51:05.365Z,-9.82
2022-12-18T07:53:32.795Z,-9.83
2022-12-18T07:56:26.027Z,-9.69
2022-12-18T07:58:47.327Z,-9.60
2022-12-18T08:01:15.014Z,-9.57
2022-12-18T08:03:42.234Z,-9.55
2022-12-18T08:06:10.756Z,-9.45
2022-12-18T08:08:37.426Z,-9.37
2022-12-18T08:11:04.179Z,-9.31
2022-12-18T08:13:30.526Z,-9.23
2022-12-18T08:15:57.836Z,-9.18
2022-12-18T08:18:24.264Z,-9.12
2022-12-18T08:20:50.616Z,-9.08
2022-12-18T08:23:16.959Z,-9.00
2022-12-18T08:25:43.296Z,-8.93
2022-12-18T08:28:09.608Z,-8.83
2022-12-18T08:30:36.774Z,-8.69
2022-12-18T08:33:04.090Z,-8.48
2022-12-18T08:35:35.856Z,-8.26
2022-12-18T08:38:04.193Z,-8.05
2022-12-18T08:40:30.584Z,-7.75
2022-12-18T08:43:15.383Z,-7.51
2022-12-18T08:45:41.781Z,-7.26
2022-12-18T08:48:08.152Z,-7.03
2022-12-18T08:50:34.528Z,-6.87
2022-12-18T08:53:01.372Z,-6.66
2022-12-18T08:55:27.699Z,-6.50
2022-12-18T08:57:53.999Z,-6.36
2022-12-18T09:00:20.883Z,-6.19
2022-12-18T09:02:47.301Z,-6.01
2022-12-18T09:05:13.934Z,-5.89
2022-12-18T09:07:40.520Z,-5.73
2022-12-18T09:10:07.311Z,-5.61
2022-12-18T09:12:33.678Z,-5.52
2022-12-18T09:14:59.979Z,-5.40
2022-12-18T09:17:26.350Z,-5.21
2022-12-18T09:19:52.712Z,-5.09
2022-12-18T09:22:19.028Z,-5.00
2022-12-18T09:24:45.335Z,-4.96
2022-12-18T09:27:11.670Z,-4.87
2022-12-18T09:29:37.990Z,-4.77
2022-12-18T09:32:04.579Z,-4.74
2022-12-18T09:34:30.973Z,-4.63
2022-12-18T09:36:57.275Z,-4.55
2022-12-18T09:39:24.327Z,-4.44
2022-12-18T09:41:58.903Z,-4.34
2022-12-18T09:44:31.745Z,-4.27
2022-12-18T09:47:13.223Z,-4.20
2022-12-18T09:49:49.012Z,-4.07
2022-12-18T09:52:22.407Z,-3.99
2022-12-18T09:55:02.807Z,-3.90
2022-12-18T09:57:34.147Z,-3.78
2022-12-18T10:00:10.730Z,-3.75
2022-12-18T10:02:41.570Z,-3.75
2022-12-18T10:05:13.074Z,-3.66
2022-12-18T10:08:03.437Z,-3.54
2022-12-18T10:10:47.483Z,-3.47
2022-12-18T10:13:17.910Z,-3.39
2022-12-18T10:16:02.999Z,-3.28
2022-12-18T10:19:03.172Z,-3.12
2022-12-18T10:21:35.540Z,-3.07
2022-12-18T10:24:27.618Z,-3.00
2022-12-18T10:27:00.556Z,-2.95
2022-12-18T10:29:27.094Z,-2.91
2022-12-18T10:31:53.392Z,-2.84
2022-12-18T10:34:19.712Z,-2.75
2022-12-18T10:36:48.404Z,-2.69
2022-12-18T10:39:17.605Z,-2.65
2022-12-18T10:41:44.055Z,-2.55
2022-12-18T10:44:25.240Z,-2.49
2022-12-18T10:46:56.834Z,-2.43
2022-12-18T10:49:29.615Z,-2.30
2022-12-18T10:52:19.367Z,-2.26
2022-12-18T10:55:04.136Z,-2.18
2022-12-18T10:57:34.032Z,-2.11
2022-12-18T11:00:22.101Z,-2.07
2022-12-18T11:02:48.634Z,-1.91
2022-12-18T11:05:31.710Z,-1.86
2022-12-18T11:07:59.679Z,-1.85
2022-12-18T11:10:34.518Z,-1.87
2022-12-18T11:13:31.147Z,-1.81
2022-12-18T11:15:58.343Z,-1.77
2022-12-18T11:18:32.418Z,-1.76
2022-12-18T11:21:07.075Z,-1.64
2022-12-18T11:23:35.035Z,-1.65
2022-12-18T11:26:06.819Z,-1.61
2022-12-18T11:28:39.614Z,-1.57
2022-12-18T11:31:17.349Z,-1.47
2022-12-18T11:34:26.740Z,-1.38
2022-12-18T11:36:45.730Z,-1.38
2022-12-18T11:39:39.574Z,-1.46
2022-12-18T11:42:16.937Z,-1.38
2022-12-18T11:44:49.476Z,-1.34
2022-12-18T11:47:39.897Z,-1.33
2022-12-18T11:50:15.405Z,-1.28
2022-12-18T11:52:42.859Z,-1.26
2022-12-18T11:55:44.809Z,-1.20
2022-12-18T11:58:35.134Z,-1.15
2022-12-18T12:01:25.843Z,-1.09
2022-12-18T12:04:09.716Z,-1.07
2022-12-18T12:06:56.476Z,-1.01
2022-12-18T12:09:44.458Z,-1.02
2022-12-18T12:12:26.840Z,-1.03
2022-12-18T12:15:04.707Z,-0.99
2022-12-18T12:18:11.270Z,-0.94
2022-12-18T12:20:40.882Z,-0.91
2022-12-18T12:23:27.963Z,-0.89
2022-12-18T12:26:06.025Z,-0.91
2022-12-18T12:28:53.794Z,-0.83
2022-12-18T12:31:40.490Z,-0.81
2022-12-18T12:34:35.718Z,-0.72
2022-12-18T12:37:25.115Z,-0.75
2022-12-18T12:39:53.966Z,-0.72
2022-12-18T12:42:54.708Z,-0.65
2022-12-18T12:45:32.331Z,-0.71
2022-12-18T12:48:00.530Z,-0.63
2022-12-18T12:50:27.159Z,-0.63
2022-12-18T12:52:58.195Z,-0.58
2022-12-18T12:55:27.640Z,-0.61
2022-12-18T12:58:19.121Z,-0.71
2022-12-18T13:01:11.788Z,-0.70
2022-12-18T13:03:52.461Z,-0.64
2022-12-18T13:07:00.932Z,-0.65
2022-12-18T13:09:31.431Z,-0.63
2022-12-18T13:12:24.179Z,-0.58
2022-12-18T13:14:50.615Z,-0.62
2022-12-18T13:17:20.732Z,-0.58
2022-12-18T13:19:51.986Z,-0.61
2022-12-18T13:22:29.760Z,-0.65
2022-12-18T13:24:56.151Z,-0.67
2022-12-18T13:27:45.195Z,-0.60
2022-12-18T13:30:34.476Z,-0.55
2022-12-18T13:33:20.485Z,-0.62
2022-12-18T13:35:46.862Z,-0.64
2022-12-18T13:38:35.854Z,-0.55
2022-12-18T13:41:23.941Z,-0.63
2022-12-18T13:43:53.171Z,-0.62
2022-12-18T13:46:27.989Z,-0.71
2022-12-18T13:49:15.041Z,-0.62
2022-12-18T13:51:45.210Z,-0.70
2022-12-18T13:54:33.835Z,-0.66
2022-12-18T13:57:00.593Z,-0.56
2022-12-18T13:59:38.067Z,-0.52
2022-12-18T14:02:15.763Z,-0.50
2022-12-18T14:04:42.704Z,-0.49
2022-12-18T14:07:14.912Z,-0.46
2022-12-18T14:09:44.450Z,-0.36
2022-12-18T14:12:43.906Z,-0.39
2022-12-18T14:15:26.907Z,-0.32
2022-12-18T14:18:10.578Z,-0.33
2022-12-18T14:20:40.972Z,-0.29
2022-12-18T14:23:27.638Z,-0.22
2022-12-18T14:25:53.991Z,-0.19
2022-12-18T14:28:22.587Z,-0.15
2022-12-18T14:30:49.435Z,-0.10
2022-12-18T14:33:20.111Z,-0.10
2022-12-18T14:36:01.741Z,-0.04
2022-12-18T14:38:33.372Z,0.05
2022-12-18T14:41:03.146Z,0.08
2022-12-18T14:43:33.115Z,0.16
2022-12-18T14:46:00.392Z,0.21
2022-12-18T14:48:41.942Z,0.27
2022-12-18T14:51:18.694Z,0.39
2022-12-18T14:53:55.473Z,0.35
2022-12-18T14:56:22.123Z,0.34
2022-12-18T14:58:56.421Z,0.36
2022-12-18T15:01:29.109Z,0.40
2022-12-18T15:03:57.501Z,0.41
2022-12-18T15:06:30.422Z,0.40
2022-12-18T15:08:57.821Z,0.40
2022-12-18T15:11:45.323Z,0.45
2022-12-18T15:14:38.506Z,0.46
2022-12-18T15:17:15.348Z,0.42
2022-12-18T15:19:44.286Z,0.42
2022-12-18T15:22:28.064Z,0.42
2022-12-18T15:24:56.078Z,0.43
2022-12-18T15:27:30.065Z,0.45
2022-12-18T15:30:11.361Z,0.51
2022-12-18T15:32:39.457Z,0.50
2022-12-18T15:35:11.813Z,0.50
2022-12-18T15:37:40.125Z,0.49
2022-12-18T15:40:12.679Z,0.48
2022-12-18T15:42:57.658Z,0.46
2022-12-18T15:45:24.322Z,0.52
2022-12-18T15:47:50.810Z,0.46
2022-12-18T15:50:17.159Z,0.56
2022-12-18T15:52:48.432Z,0.60
2022-12-18T15:55:41.948Z,0.54
2022-12-18T15:58:10.848Z,0.50
2022-12-18T16:00:40.038Z,0.56
2022-12-18T16:03:06.893Z,0.51
2022-12-18T16:05:34.058Z,0.53
2022-12-18T16:08:00.466Z,0.50
2022-12-18T16:10:28.227Z,0.51
2022-12-18T16:12:54.707Z,0.53
2022-12-18T16:15:24.816Z,0.53
2022-12-18T16:17:52.578Z,0.52
2022-12-18T16:20:22.254Z,0.57
2022-12-18T16:22:49.613Z,0.51
2022-12-18T16:25:25.146Z,0.51
2022-12-18T16:27:52.216Z,0.48
2022-12-18T16:30:21.483Z,0.51
2022-12-18T16:32:48.006Z,0.50
2022-12-18T16:35:16.112Z,0.48
2022-12-18T16:37:43.448Z,0.48
2022-12-18T16:40:12.587Z,0.44
2022-12-18T16:42:41.122Z,0.45
2022-12-18T16:45:09.766Z,0.38
2022-12-18T16:47:36.455Z,0.38
2022-12-18T16:50:03.969Z,0.38
2022-12-18T16:52:30.492Z,0.36
2022-12-18T16:54:57.033Z,0.37
2022-12-18T16:57:25.370Z,0.33
2022-12-18T16:59:52.510Z,0.22
2022-12-18T17:02:23.987Z,0.18
2022-12-18T17:04:54.001Z,0.14
2022-12-18T17:07:20.519Z,0.20
2022-12-18T17:09:47.015Z,0.13
2022-12-18T17:12:13.534Z,0.15
2022-12-18T17:14:40.029Z,0.16
2022-12-18T17:17:20.935Z,0.13
2022-12-18T17:19:48.225Z,0.10
2022-12-18T17:22:14.692Z,0.09
2022-12-18T17:24:41.551Z,0.08
2022-12-18T17:27:08.795Z,0.14
2022-12-18T17:29:35.251Z,0.12
2022-12-18T17:32:01.710Z,0.16
2022-12-18T17:34:28.694Z,0.17
2022-12-18T17:36:56.387Z,0.19
2022-12-18T17:39:22.771Z,0.17
2022-12-18T17:41:49.946Z,0.22
2022-12-18T17:44:17.179Z,0.41
2022-12-18T17:46:44.017Z,0.44
2022-12-18T17:49:11.404Z,0.50
2022-12-18T17:51:38.849Z,0.52
2022-12-18T17:54:06.345Z,0.58
2022-12-18T17:56:32.950Z,0.64
2022-12-18T17:59:00.022Z,0.74
2022-12-18T18:01:26.680Z,0.67
2022-12-18T18:03:55.992Z,0.75
2022-12-18T18:06:23.811Z,0.68
2022-12-18T18:08:51.194Z,0.75
2022-12-18T18:11:39.414Z,0.71
2022-12-18T18:14:12.363Z,0.74
2022-12-18T18:16:43.957Z,0.77
2022-12-18T18:19:13.843Z,0.74
2022-12-18T18:21:42.239Z,0.83
2022-12-18T18:24:10.864Z,0.74
2022-12-18T18:26:38.284Z,0.77
2022-12-18T18:29:07.081Z,0.79
2022-12-18T18:31:38.213Z,0.80
2022-12-18T18:34:08.493Z,0.75
2022-12-18T18:36:34.982Z,0.72
2022-12-18T18:39:02.084Z,0.72
2022-12-18T18:41:29.898Z,0.76
2022-12-18T18:43:57.802Z,0.77
2022-12-18T18:46:25.262Z,0.72
2022-12-18T18:48:51.882Z,0.73
2022-12-18T18:51:21.074Z,0.65
2022-12-18T18:53:49.896Z,0.67
2022-12-18T18:56:50.222Z,0.62
2022-12-18T18:59:06.215Z,0.61
2022-12-18T19:01:33.046Z,0.60
2022-12-18T19:04:00.953Z,0.55
2022-12-18T19:06:28.615Z,0.53
2022-12-18T19:08:57.423Z,0.50
2022-12-18T19:11:44.198Z,0.51
2022-12-18T19:14:12.818Z,0.53
2022-12-18T19:16:40.204Z,0.61
2022-12-18T19:19:07.557Z,0.53
2022-12-18T19:21:35.190Z,0.59
2022-12-18T19:24:02.443Z,0.57
2022-12-18T19:26:29.260Z,0.54
2022-12-18T19:29:04.434Z,0.53
2022-12-18T19:31:35.550Z,0.51
2022-12-18T19:34:03.829Z,0.48
2022-12-18T19:36:31.393Z,0.53
2022-12-18T19:39:00.239Z,0.55
2022-12-18T19:41:29.167Z,0.54
2022-12-18T19:43:58.368Z,0.52
2022-12-18T19:46:27.343Z,0.51
2022-12-18T19:48:53.868Z,0.56
2022-12-18T19:51:23.919Z,0.53
2022-12-18T19:53:56.433Z,0.49
2022-12-18T19:56:26.674Z,0.55
2022-12-18T19:58:54.219Z,0.53
2022-12-18T20:01:22.850Z,0.51
2022-12-18T20:03:52.585Z,0.45
2022-12-18T20:06:32.971Z,0.47
2022-12-18T20:09:05.911Z,0.51
2022-12-18T20:11:33.674Z,0.50
2022-12-18T20:14:02.210Z,0.43
2022-12-18T20:16:29.358Z,0.46
2022-12-18T20:18:56.964Z,0.51
2022-12-18T20:21:25.247Z,0.44
2022-12-18T20:23:52.094Z,0.50
2022-12-18T20:26:19.271Z,0.53
2022-12-18T20:28:45.658Z,0.50
2022-12-18T20:31:13.580Z,0.50
2022-12-18T20:33:41.423Z,0.50
2022-12-18T20:36:13.069Z,0.51
2022-12-18T20:38:41.381Z,0.49
2022-12-18T20:41:16.261Z,0.52
2022-12-18T20:43:43.830Z,0.49
2022-12-18T20:46:13.488Z,0.47
2022-12-18T20:48:40.256Z,0.44
2022-12-18T20:51:18.340Z,0.46
2022-12-18T20:53:45.744Z,0.47
2022-12-18T20:56:19.635Z,0.47
2022-12-18T20:58:49.360Z,0.42
2022-12-18T21:01:18.820Z,0.40
2022-12-18T21:03:46.152Z,0.35
2022-12-18T21:06:14.176Z,0.38
2022-12-18T21:08:42.900Z,0.40
2022-12-18T21:11:35.053Z,0.34
2022-12-18T21:14:03.146Z,0.33
2022-12-18T21:16:29.740Z,0.31
2022-12-18T21:18:56.135Z,0.36
2022-12-18T21:21:26.597Z,0.29
2022-12-18T21:23:53.680Z,0.30
2022-12-18T21:26:22.573Z,0.25
2022-12-18T21:28:57.201Z,0.30
2022-12-18T21:31:26.909Z,0.20
2022-12-18T21:33:56.475Z,0.22
2022-12-18T21:36:28.996Z,0.16
2022-12-18T21:38:57.639Z,0.14
2022-12-18T21:41:44.211Z,0.15
2022-12-18T21:44:12.820Z,0.12
2022-12-18T21:46:44.481Z,0.17
2022-12-18T21:49:14.381Z,0.15
2022-12-18T21:51:41.234Z,0.13
2022-12-18T21:54:07.646Z,0.13
2022-12-18T21:56:53.065Z,0.16
2022-12-18T21:59:39.878Z,0.15
2022-12-18T22:02:10.489Z,0.08
2022-12-18T22:04:45.915Z,0.09
2022-12-18T22:07:13.763Z,0.06
2022-12-18T22:09:40.447Z,0.06
2022-12-18T22:12:08.887Z,0.07
2022-12-18T22:14:35.898Z,0.08
2022-12-18T22:17:03.057Z,0.03
2022-12-18T22:19:30.304Z,0.01
2022-12-18T22:21:56.674Z,0.04
2022-12-18T22:24:25.672Z,0.05
2022-12-18T22:26:54.186Z,0.13
2022-12-18T22:29:46.877Z,0.18
2022-12-18T22:32:16.845Z,0.19
2022-12-18T22:34:46.765Z,0.14
2022-12-18T22:37:13.201Z,0.10
2022-12-18T22:39:39.991Z,0.19
2022-12-18T22:42:07.425Z,0.14
2022-12-18T22:44:33.849Z,0.11
2022-12-18T22:47:06.218Z,0.14
2022-12-18T22:49:35.087Z,0.11
2022-12-18T22:52:02.533Z,0.10
2022-12-18T22:54:28.921Z,0.17
2022-12-18T22:56:55.559Z,0.22
2022-12-18T22:59:23.212Z,0.19
2022-12-18T23:01:51.450Z,0.21
2022-12-18T23:04:28.465Z,0.13
2022-12-18T23:07:01.486Z,0.15
2022-12-18T23:09:28.435Z,0.23
2022-12-18T23:11:54.848Z,0.24
2022-12-18T23:14:21.191Z,0.21
2022-12-18T23:16:47.646Z,0.25
2022-12-18T23:19:16.268Z,0.26
2022-12-18T23:21:42.699Z,0.24
2022-12-18T23:24:09.247Z,0.23
2022-12-18T23:26:35.704Z,0.27
2022-12-18T23:29:03.441Z,0.22
2022-12-18T23:31:35.285Z,0.27
2022-12-18T23:34:03.099Z,0.22
2022-12-18T23:36:29.837Z,0.24
2022-12-18T23:39:00.974Z,0.22
2022-12-18T23:41:32.541Z,0.30
2022-12-18T23:44:00.306Z,0.29
2022-12-18T23:46:29.543Z,0.24
2022-12-18T23:48:58.565Z,0.25
2022-12-18T23:51:25.779Z,0.30
2022-12-18T23:53:53.950Z,0.29
2022-12-18T23:56:20.959Z,0.38
2022-12-18T23:58:48.543Z,0.37
